Time;durP1;ratioP1;P1;durP2;ratioP2;P2;SDS_P1;SDS_P2;PMS_P1;PMS_P2;Temp;Humidity;BMP_temperature;BMP_pressure;BME280_temperature;BME280_humidity;BME280_pressure;Samples;Min_cycle;Max_cycle;Signal;HPM_P1;HPM_P2
2022/09/25 00:00:23;;;;;;;11.65;10.55;;;14.20;99.90;;;;;;5029686;28;20189;-58
2022/09/25 00:02:49;;;;;;;11.77;10.57;;;14.00;99.90;;;;;;5029689;28;20523;-58
2022/09/25 00:05:15;;;;;;;12.03;10.73;;;14.10;99.90;;;;;;5023568;28;20202;-59
2022/09/25 00:07:41;;;;;;;11.90;10.80;;;14.10;99.90;;;;;;5028865;28;20194;-60
2022/09/25 00:10:07;;;;;;;12.63;11.40;;;14.00;99.90;;;;;;5028334;28;20533;-60
2022/09/25 00:12:33;;;;;;;13.60;12.20;;;14.00;99.90;;;;;;5028057;28;20261;-60
2022/09/25 00:14:59;;;;;;;14.27;12.98;;;14.10;99.90;;;;;;5029840;28;20527;-59
2022/09/25 00:17:25;;;;;;;17.10;12.50;;;13.90;99.90;;;;;;5026173;28;20825;-59
2022/09/25 00:19:51;;;;;;;13.70;12.40;;;13.90;99.90;;;;;;5023249;28;20232;-60
2022/09/25 00:22:19;;;;;;;14.18;12.77;;;13.80;99.90;;;;;;5024627;28;20548;-60
2022/09/25 00:24:44;;;;;;;16.48;11.85;;;14.00;99.90;;;;;;5027432;28;20209;-60
2022/09/25 00:27:11;;;;;;;12.70;11.43;;;14.10;99.90;;;;;;5024288;28;20178;-60
2022/09/25 00:29:38;;;;;;;14.02;12.60;;;13.80;99.90;;;;;;5030204;28;20186;-59
2022/09/25 00:32:05;;;;;;;14.10;12.80;;;13.90;99.90;;;;;;5024003;28;20191;-59
2022/09/25 00:34:32;;;;;;;14.90;13.20;;;13.70;99.90;;;;;;5028856;28;20279;-59
2022/09/25 00:36:58;;;;;;;14.77;13.35;;;13.70;99.90;;;;;;5028608;28;20174;-59
2022/09/25 00:39:24;;;;;;;16.50;14.80;;;13.70;99.90;;;;;;5028733;28;20794;-60
2022/09/25 00:41:50;;;;;;;14.32;12.50;;;13.80;99.90;;;;;;5030645;28;20494;-59
2022/09/25 00:44:55;;;;;;;15.52;13.93;;;13.50;99.90;;;;;;5030205;28;20217;-58
2022/09/25 00:47:29;;;;;;;14.48;12.98;;;13.70;99.90;;;;;;5025683;28;20293;-59
2022/09/25 00:49:59;;;;;;;15.65;13.90;;;13.50;99.90;;;;;;5027162;28;20225;-59
2022/09/25 00:52:25;;;;;;;17.15;15.30;;;13.40;99.90;;;;;;5028305;28;20194;-59
2022/09/25 00:55:06;;;;;;;15.55;14.00;;;13.40;99.90;;;;;;5023825;28;20198;-59
2022/09/25 00:57:35;;;;;;;15.07;13.43;;;13.40;99.90;;;;;;5025188;28;20194;-59
2022/09/25 01:00:06;;;;;;;14.10;12.80;;;13.40;99.90;;;;;;5025379;28;20592;-59
2022/09/25 01:02:42;;;;;;;13.90;12.48;;;13.50;99.90;;;;;;5031922;28;20186;-59
2022/09/25 01:05:17;;;;;;;15.18;13.68;;;13.40;99.90;;;;;;5023848;28;20209;-59
2022/09/25 01:07:46;;;;;;;14.80;13.30;;;13.50;99.90;;;;;;5030476;28;20686;-60
2022/09/25 01:10:13;;;;;;;14.02;12.52;;;13.60;99.90;;;;;;5030096;28;20246;-60
2022/09/25 01:12:44;;;;;;;12.82;11.48;;;13.30;99.90;;;;;;5025107;28;20239;-60
2022/09/25 01:15:11;;;;;;;15.35;13.85;;;13.50;99.90;;;;;;5028884;28;20613;-60
2022/09/25 01:17:59;;;;;;;14.45;12.95;;;13.30;99.90;;;;;;5032442;28;20178;-60
2022/09/25 01:20:43;;;;;;;15.30;11.93;;;13.40;99.90;;;;;;5030950;28;20605;-60
2022/09/25 01:23:46;;;;;;;13.98;12.57;;;13.60;99.90;;;;;;5029015;28;20209;-60
2022/09/25 01:26:27;;;;;;;13.13;11.52;;;13.40;99.90;;;;;;5020338;28;20213;-60
2022/09/25 01:29:33;;;;;;;13.43;12.13;;;13.40;99.90;;;;;;5033484;28;20201;-61
2022/09/25 01:32:12;;;;;;;14.85;13.35;;;13.60;99.90;;;;;;5032494;28;20216;-61
2022/09/25 01:35:06;;;;;;;15.98;14.38;;;13.50;99.90;;;;;;5031788;28;20213;-60
2022/09/25 01:37:51;;;;;;;14.02;12.57;;;13.50;99.90;;;;;;5032411;28;20721;-59
2022/09/25 01:40:32;;;;;;;14.55;13.07;;;13.40;99.90;;;;;;5021417;28;20194;-59
2022/09/25 01:43:13;;;;;;;14.80;13.10;;;14.00;99.90;;;;;;5022969;28;20191;-60
2022/09/25 01:45:49;;;;;;;14.43;12.65;;;13.90;99.90;;;;;;5030635;28;20633;-60
2022/09/25 01:48:17;;;;;;;13.23;11.93;;;13.60;99.90;;;;;;5033035;28;20208;-62
2022/09/25 01:51:06;;;;;;;14.82;12.30;;;13.80;99.90;;;;;;5033515;28;20221;-60
2022/09/25 01:53:43;;;;;;;13.98;12.48;;;13.80;99.90;;;;;;5030862;28;20182;-59
2022/09/25 01:56:30;;;;;;;14.80;13.20;;;13.80;99.90;;;;;;5032950;28;20232;-59
2022/09/25 01:59:03;;;;;;;14.15;12.70;;;13.90;99.90;;;;;;5031341;28;20194;-59
2022/09/25 02:01:34;;;;;;;13.65;12.35;;;13.90;99.90;;;;;;5035593;28;20198;-59
2022/09/25 02:04:07;;;;;;;13.35;12.05;;;13.90;99.90;;;;;;5038868;28;20201;-59
2022/09/25 02:06:37;;;;;;;14.35;12.95;;;14.00;99.90;;;;;;5029177;28;20194;-60
2022/09/25 02:09:07;;;;;;;13.55;12.15;;;13.80;99.90;;;;;;5035140;28;20559;-59
2022/09/25 02:11:40;;;;;;;14.45;12.93;;;13.90;99.90;;;;;;5024086;28;20719;-59
2022/09/25 02:14:20;;;;;;;13.95;12.55;;;14.40;99.90;;;;;;5027339;28;20237;-60
2022/09/25 02:16:53;;;;;;;14.55;13.15;;;14.00;99.90;;;;;;5032040;28;20194;-60
2022/09/25 02:22:21;;;;;;;14.65;13.23;;;14.40;99.90;;;;;;5027846;28;20255;-59
2022/09/25 02:25:11;;;;;;;14.00;12.55;;;14.30;99.90;;;;;;5032781;28;20210;-59
2022/09/25 02:27:38;;;;;;;13.93;12.52;;;14.00;99.90;;;;;;5028686;28;20201;-59
2022/09/25 02:30:04;;;;;;;14.35;12.85;;;13.80;99.90;;;;;;5031866;28;20214;-59
2022/09/25 02:32:31;;;;;;;14.65;13.15;;;14.10;99.90;;;;;;5032461;28;20248;-58
2022/09/25 02:34:58;;;;;;;13.55;12.23;;;13.90;99.90;;;;;;5029735;28;20214;-65
2022/09/25 02:37:25;;;;;;;12.55;11.25;;;14.10;99.90;;;;;;5031555;28;20175;-59
2022/09/25 02:39:56;;;;;;;13.70;12.40;;;14.20;99.90;;;;;;5027557;28;20277;-60
2022/09/25 02:42:48;;;;;;;11.63;10.45;;;14.40;99.90;;;;;;5030915;28;20182;-59
2022/09/25 02:45:35;;;;;;;13.13;11.82;;;14.30;99.90;;;;;;5020566;28;20256;-59
2022/09/25 02:48:26;;;;;;;13.57;12.27;;;14.00;99.90;;;;;;5029436;28;20685;-60
2022/09/25 02:51:14;;;;;;;13.82;12.52;;;14.10;99.90;;;;;;5023384;28;20631;-59
2022/09/25 02:54:00;;;;;;;13.32;11.70;;;14.00;99.90;;;;;;5029015;28;20190;-60
2022/09/25 02:56:32;;;;;;;14.27;12.88;;;14.10;99.90;;;;;;5031034;28;20222;-59
2022/09/25 02:59:06;;;;;;;15.18;13.73;;;14.10;99.90;;;;;;5023427;28;20273;-59
2022/09/25 03:01:36;;;;;;;13.63;12.32;;;14.00;99.90;;;;;;5030624;28;20201;-59
2022/09/25 03:04:04;;;;;;;14.77;13.25;;;14.10;99.90;;;;;;5032900;28;20322;-59
2022/09/25 03:06:29;;;;;;;12.05;10.85;;;14.20;99.90;;;;;;5031272;28;20178;-59
2022/09/25 03:08:56;;;;;;;13.00;11.20;;;14.10;99.90;;;;;;5024812;28;20192;-59
2022/09/25 03:11:25;;;;;;;11.88;10.73;;;14.30;99.90;;;;;;5027588;28;20722;-58
2022/09/25 03:13:59;;;;;;;12.35;11.05;;;14.10;99.90;;;;;;5027353;28;20257;-58
2022/09/25 03:16:50;;;;;;;12.05;10.95;;;14.00;99.90;;;;;;5031291;28;20197;-58
2022/09/25 03:19:18;;;;;;;13.32;11.52;;;14.00;99.90;;;;;;5039388;28;20185;-59
2022/09/25 03:21:44;;;;;;;13.98;12.63;;;14.30;99.90;;;;;;5025341;28;20194;-58
2022/09/25 03:24:10;;;;;;;13.50;11.75;;;14.10;99.90;;;;;;5018799;28;20178;-60
2022/09/25 03:26:36;;;;;;;12.57;11.37;;;13.90;99.90;;;;;;5027830;28;20192;-58
2022/09/25 03:29:02;;;;;;;12.25;11.05;;;14.00;99.90;;;;;;5024656;28;20280;-58
2022/09/25 03:31:29;;;;;;;11.90;10.30;;;14.10;99.90;;;;;;5032124;28;20214;-59
2022/09/25 03:33:55;;;;;;;11.70;10.60;;;14.20;99.90;;;;;;5028702;28;21014;-59
2022/09/25 03:36:44;;;;;;;12.90;10.73;;;14.20;99.90;;;;;;5024371;28;20289;-59
2022/09/25 03:39:10;;;;;;;11.23;10.20;;;14.00;99.90;;;;;;5020941;28;20189;-58
2022/09/25 03:41:36;;;;;;;13.00;11.80;;;14.30;99.90;;;;;;5022936;28;20190;-59
2022/09/25 03:44:02;;;;;;;12.13;10.93;;;14.10;99.90;;;;;;5023756;28;20185;-58
2022/09/25 03:46:30;;;;;;;13.98;11.85;;;14.20;99.90;;;;;;5029916;28;20185;-59
2022/09/25 03:48:57;;;;;;;12.13;10.93;;;14.40;99.90;;;;;;5030384;28;20261;-59
2022/09/25 03:51:25;;;;;;;12.75;11.40;;;14.30;99.90;;;;;;5027572;28;20209;-59
2022/09/25 03:53:52;;;;;;;13.18;11.00;;;14.60;99.90;;;;;;5031167;28;20190;-60
2022/09/25 03:56:20;;;;;;;11.98;10.82;;;14.50;99.90;;;;;;5035796;28;20232;-60
2022/09/25 03:58:47;;;;;;;12.48;11.00;;;14.50;99.90;;;;;;5026419;28;20210;-60
2022/09/25 04:01:13;;;;;;;12.00;10.52;;;14.20;99.90;;;;;;5023870;28;20195;-60
2022/09/25 04:03:40;;;;;;;14.68;12.15;;;14.00;99.90;;;;;;5023333;28;20198;-59
2022/09/25 04:06:07;;;;;;;13.13;11.82;;;14.00;99.90;;;;;;5034937;28;20244;-59
2022/09/25 04:08:35;;;;;;;13.45;12.10;;;14.10;99.90;;;;;;5028819;28;20571;-60
2022/09/25 04:11:02;;;;;;;13.90;12.50;;;13.90;99.90;;;;;;5019458;28;20206;-59
2022/09/25 04:13:48;;;;;;;18.42;13.23;;;14.00;99.90;;;;;;5021417;28;20824;-60
2022/09/25 04:16:15;;;;;;;15.25;13.82;;;14.10;99.90;;;;;;5036846;28;20194;-60
2022/09/25 04:18:41;;;;;;;14.20;12.80;;;14.10;99.90;;;;;;5027959;28;20182;-60
2022/09/25 04:21:10;;;;;;;13.88;12.52;;;14.60;99.90;;;;;;5027883;28;20268;-60
2022/09/25 04:23:36;;;;;;;14.25;12.85;;;14.30;99.90;;;;;;5030891;28;20198;-60
2022/09/25 04:26:02;;;;;;;13.60;12.20;;;14.50;99.90;;;;;;5016576;28;20213;-60
2022/09/25 04:28:31;;;;;;;15.00;13.25;;;14.10;99.90;;;;;;5029089;28;20194;-60
2022/09/25 04:30:56;;;;;;;13.05;11.75;;;14.40;99.90;;;;;;5032022;28;20220;-60
2022/09/25 04:36:07;;;;;;;14.20;12.70;;;14.50;99.90;;;;;;5028729;28;20208;-58
2022/09/25 04:38:33;;;;;;;14.25;12.52;;;14.40;99.90;;;;;;5025796;28;20185;-64
2022/09/25 04:41:00;;;;;;;14.27;12.93;;;14.20;99.90;;;;;;5021551;28;20568;-63
2022/09/25 04:43:30;;;;;;;14.65;12.50;;;14.20;99.90;;;;;;5035909;28;20322;-65
2022/09/25 04:46:07;;;;;;;14.15;12.75;;;14.20;99.90;;;;;;5026943;28;20283;-64
2022/09/25 04:48:33;;;;;;;14.35;12.85;;;14.10;99.90;;;;;;5025626;28;20189;-66
2022/09/25 04:50:59;;;;;;;14.87;13.37;;;14.00;99.90;;;;;;5031057;28;20219;-64
2022/09/25 04:53:28;;;;;;;14.82;13.07;;;14.20;99.90;;;;;;5027015;28;20196;-67
2022/09/25 04:55:59;;;;;;;12.68;11.48;;;14.30;99.90;;;;;;5028022;28;20304;-63
2022/09/25 04:58:25;;;;;;;14.13;12.68;;;14.40;99.90;;;;;;5031338;28;20192;-71
2022/09/25 05:00:50;;;;;;;14.30;12.80;;;14.40;99.90;;;;;;5027497;28;20185;-71
2022/09/25 05:03:16;;;;;;;14.40;12.90;;;14.30;99.90;;;;;;5029452;28;20975;-64
2022/09/25 05:05:41;;;;;;;14.63;13.13;;;14.40;99.90;;;;;;5032118;28;20832;-63
2022/09/25 05:08:09;;;;;;;16.60;15.03;;;14.30;99.90;;;;;;5026514;28;20183;-68
2022/09/25 05:10:35;;;;;;;16.92;15.10;;;14.40;99.90;;;;;;5022256;28;20259;-66
2022/09/25 05:13:02;;;;;;;16.50;14.80;;;14.40;99.90;;;;;;5031894;28;20221;-69
2022/09/25 05:15:30;;;;;;;14.73;13.23;;;14.70;99.90;;;;;;5035427;28;20228;-67
2022/09/25 05:18:03;;;;;;;17.02;15.27;;;14.40;99.90;;;;;;5031921;28;20198;-69
2022/09/25 05:20:30;;;;;;;16.70;15.00;;;14.50;99.90;;;;;;5020419;28;20693;-65
2022/09/25 05:22:56;;;;;;;15.70;14.10;;;14.50;99.90;;;;;;5025708;28;20408;-65
2022/09/25 05:25:24;;;;;;;16.95;15.15;;;14.70;99.90;;;;;;5024990;28;20580;-63
2022/09/25 05:27:50;;;;;;;15.73;14.23;;;14.50;99.90;;;;;;5029564;28;20210;-68
2022/09/25 05:30:16;;;;;;;16.83;15.02;;;14.50;99.90;;;;;;5030420;28;20292;-67
2022/09/25 05:32:49;;;;;;;16.07;14.40;;;14.50;99.90;;;;;;5030725;28;20232;-67
2022/09/25 05:35:35;;;;;;;17.02;15.30;;;14.40;99.90;;;;;;5028080;28;20214;-62
2022/09/25 05:38:01;;;;;;;17.52;15.70;;;14.50;99.90;;;;;;5026784;28;20183;-61
2022/09/25 05:40:27;;;;;;;17.90;16.00;;;14.10;99.90;;;;;;5021016;28;20186;-62
2022/09/25 05:42:54;;;;;;;16.48;14.73;;;14.20;99.90;;;;;;5032030;28;20221;-62
2022/09/25 05:45:22;;;;;;;16.42;14.63;;;14.00;99.90;;;;;;5021435;28;20201;-62
2022/09/25 05:47:47;;;;;;;18.60;16.75;;;14.00;99.90;;;;;;5029197;28;20189;-61
2022/09/25 05:50:15;;;;;;;16.47;14.87;;;14.00;99.90;;;;;;5023893;28;20219;-62
2022/09/25 05:52:42;;;;;;;16.92;15.15;;;14.00;99.90;;;;;;5035570;28;20661;-62
2022/09/25 05:55:09;;;;;;;14.18;12.88;;;14.20;99.90;;;;;;5028609;28;20214;-63
2022/09/25 05:57:36;;;;;;;13.68;12.27;;;14.10;99.90;;;;;;5028730;28;20221;-60
2022/09/25 06:00:08;;;;;;;12.48;11.27;;;14.10;99.90;;;;;;5030221;28;20189;-61
2022/09/25 06:02:34;;;;;;;13.32;11.93;;;14.10;99.90;;;;;;5031825;28;20190;-60
2022/09/25 06:04:59;;;;;;;14.13;12.63;;;14.20;99.90;;;;;;5032956;28;20738;-63
2022/09/25 06:07:25;;;;;;;14.40;12.90;;;14.20;99.90;;;;;;5031749;28;20190;-61
2022/09/25 06:09:51;;;;;;;15.17;12.53;;;14.40;99.90;;;;;;5030977;28;20182;-62
2022/09/25 06:12:17;;;;;;;14.20;12.57;;;14.30;99.90;;;;;;5029661;28;20206;-61
2022/09/25 06:14:42;;;;;;;13.40;12.02;;;14.30;99.90;;;;;;5027557;28;20464;-61
2022/09/25 06:17:10;;;;;;;12.17;10.97;;;14.30;99.90;;;;;;5023414;28;20178;-60
2022/09/25 06:19:36;;;;;;;12.27;10.75;;;14.60;99.90;;;;;;5027438;28;20186;-61
2022/09/25 06:22:02;;;;;;;14.07;11.50;;;14.70;99.90;;;;;;5029185;28;20178;-62
2022/09/25 06:24:28;;;;;;;12.70;11.00;;;14.40;99.90;;;;;;5036778;28;20210;-61
2022/09/25 06:26:54;;;;;;;12.27;10.85;;;14.80;99.90;;;;;;5031091;28;20439;-62
2022/09/25 06:29:20;;;;;;;12.13;10.57;;;14.60;99.90;;;;;;5030237;28;20186;-61
2022/09/25 06:31:45;;;;;;;12.90;11.50;;;14.80;99.90;;;;;;5033755;28;20224;-61
2022/09/25 06:34:11;;;;;;;12.30;10.70;;;14.60;99.90;;;;;;5033339;28;20734;-60
2022/09/25 06:36:38;;;;;;;13.30;11.90;;;14.90;99.90;;;;;;5032009;28;20195;-61
2022/09/25 06:39:03;;;;;;;12.10;10.70;;;14.70;99.90;;;;;;5030077;28;20221;-61
2022/09/25 06:41:29;;;;;;;13.43;12.03;;;14.80;99.90;;;;;;5034450;28;20190;-61
2022/09/25 06:43:55;;;;;;;11.67;10.50;;;14.40;99.90;;;;;;5030983;28;22097;-61
2022/09/25 06:46:21;;;;;;;19.90;16.07;;;14.70;99.90;;;;;;5033064;28;20252;-61
2022/09/25 06:48:53;;;;;;;13.73;11.63;;;14.60;99.90;;;;;;5020707;28;20193;-61
2022/09/25 06:51:19;;;;;;;14.02;11.13;;;14.80;99.90;;;;;;5024741;28;20675;-62
2022/09/25 06:53:45;;;;;;;15.98;13.35;;;14.70;99.90;;;;;;5027055;28;20206;-60
2022/09/25 06:56:11;;;;;;;13.20;11.52;;;14.80;99.90;;;;;;5030310;28;20202;-61
2022/09/25 06:58:37;;;;;;;13.40;12.00;;;14.70;99.90;;;;;;5026666;28;20725;-61
2022/09/25 07:01:06;;;;;;;12.37;11.07;;;14.90;99.90;;;;;;5024364;28;20178;-60
2022/09/25 07:03:44;;;;;;;15.70;11.82;;;14.70;99.90;;;;;;5019084;28;20273;-62
2022/09/25 07:06:21;;;;;;;13.77;12.20;;;14.90;99.90;;;;;;5033542;28;20308;-61
2022/09/25 07:08:48;;;;;;;15.50;12.25;;;15.00;99.90;;;;;;5033294;28;20524;-62
2022/09/25 07:11:16;;;;;;;13.80;12.25;;;15.20;99.90;;;;;;5029694;28;20727;-61
2022/09/25 07:13:44;;;;;;;13.88;12.35;;;15.30;99.90;;;;;;5037793;28;20210;-63
2022/09/25 07:16:16;;;;;;;14.15;12.50;;;15.40;99.90;;;;;;5037253;28;20594;-62
2022/09/25 07:18:42;;;;;;;13.27;11.70;;;15.30;99.90;;;;;;5024396;28;20199;-63
2022/09/25 07:21:19;;;;;;;15.38;12.65;;;15.40;99.90;;;;;;5028895;28;20221;-61
2022/09/25 07:23:49;;;;;;;11.25;10.15;;;15.30;99.90;;;;;;5031815;28;20924;-62
2022/09/25 07:26:24;;;;;;;11.52;10.43;;;15.20;99.90;;;;;;5026083;28;20217;-62
2022/09/25 07:29:02;;;;;;;10.57;9.38;;;15.10;99.90;;;;;;5034712;28;20185;-62
2022/09/25 07:31:33;;;;;;;10.25;9.25;;;15.20;99.90;;;;;;5026111;28;20244;-61
2022/09/25 07:34:04;;;;;;;9.52;8.52;;;15.40;99.90;;;;;;5028578;28;20186;-62
2022/09/25 07:36:30;;;;;;;8.88;7.97;;;15.20;99.90;;;;;;5026936;28;20177;-62
2022/09/25 07:38:56;;;;;;;8.40;7.60;;;15.30;99.90;;;;;;5024537;28;20217;-62
2022/09/25 07:41:22;;;;;;;9.13;8.23;;;15.60;99.90;;;;;;5020807;28;20747;-62
2022/09/25 07:43:56;;;;;;;9.30;8.40;;;15.40;99.90;;;;;;5032331;28;20985;-62
2022/09/25 07:46:24;;;;;;;9.27;8.40;;;15.40;99.90;;;;;;5025162;28;20224;-62
2022/09/25 07:48:50;;;;;;;10.40;9.30;;;15.60;99.90;;;;;;5028435;28;20188;-61
2022/09/25 07:51:16;;;;;;;10.17;9.07;;;15.70;99.90;;;;;;5026474;28;20756;-62
2022/09/25 07:53:43;;;;;;;9.45;8.55;;;15.50;99.90;;;;;;5030481;28;20457;-62
2022/09/25 07:56:09;;;;;;;9.25;8.25;;;15.70;99.90;;;;;;5029979;28;20655;-58
2022/09/25 07:58:35;;;;;;;9.65;8.75;;;15.80;99.90;;;;;;5030201;28;20569;-63
2022/09/25 08:01:03;;;;;;;8.63;7.80;;;15.70;99.90;;;;;;5031108;28;20273;-61
2022/09/25 08:03:28;;;;;;;9.40;8.57;;;15.80;99.90;;;;;;5034208;28;20211;-62
2022/09/25 08:06:05;;;;;;;8.43;7.60;;;15.70;99.90;;;;;;5026734;28;20292;-61
2022/09/25 08:08:32;;;;;;;9.45;8.52;;;15.80;99.90;;;;;;5026362;28;20190;-63
2022/09/25 08:11:02;;;;;;;8.35;7.55;;;16.00;99.90;;;;;;5026744;28;20190;-60
2022/09/25 08:13:30;;;;;;;8.82;7.78;;;15.90;99.90;;;;;;5033765;28;20679;-61
2022/09/25 08:15:55;;;;;;;9.95;8.95;;;16.10;99.90;;;;;;5029751;28;20737;-63
2022/09/25 08:18:21;;;;;;;8.10;7.40;;;16.00;99.90;;;;;;5029438;28;20186;-61
2022/09/25 08:20:47;;;;;;;7.90;7.20;;;16.20;99.90;;;;;;5028734;28;20279;-62
2022/09/25 08:23:12;;;;;;;9.77;7.87;;;16.20;99.90;;;;;;5021990;28;20682;-60
2022/09/25 08:25:38;;;;;;;8.33;7.53;;;16.20;99.90;;;;;;5027259;28;20212;-60
2022/09/25 08:28:03;;;;;;;8.33;7.53;;;16.10;99.90;;;;;;5018953;28;20666;-60
2022/09/25 08:30:29;;;;;;;8.57;7.43;;;16.30;99.90;;;;;;5029895;28;20208;-60
2022/09/25 08:32:54;;;;;;;8.97;8.07;;;16.40;99.90;;;;;;5025701;28;20188;-61
2022/09/25 08:35:20;;;;;;;9.10;8.20;;;16.40;99.90;;;;;;5027897;28;20271;-60
2022/09/25 08:37:47;;;;;;;8.55;7.75;;;16.30;99.90;;;;;;5027646;28;20197;-61
2022/09/25 08:40:25;;;;;;;8.65;7.75;;;16.20;99.90;;;;;;5028227;28;20182;-60
2022/09/25 08:42:52;;;;;;;8.15;7.35;;;16.30;99.90;;;;;;5026696;28;20548;-62
2022/09/25 08:51:05;;;;;;;8.32;7.55;;;16.60;99.90;;;;;;5025752;28;20248;-61
2022/09/25 08:53:32;;;;;;;10.00;7.38;;;16.80;99.90;;;;;;5026221;28;20334;-62
2022/09/25 08:56:13;;;;;;;7.75;6.90;;;16.80;99.90;;;;;;5026987;28;20198;-61
2022/09/25 08:58:42;;;;;;;7.72;6.93;;;16.90;99.90;;;;;;5026298;28;20178;-64
2022/09/25 09:01:14;;;;;;;7.50;6.80;;;17.20;99.90;;;;;;5029386;28;20174;-61
2022/09/25 09:04:06;;;;;;;7.93;7.13;;;17.10;99.90;;;;;;5029911;28;20181;-60
2022/09/25 09:06:33;;;;;;;7.10;6.50;;;17.00;99.90;;;;;;4998325;28;20197;-61
2022/09/25 09:09:25;;;;;;;7.47;6.65;;;17.30;99.90;;;;;;5028011;28;20217;-60
2022/09/25 09:12:09;;;;;;;12.75;11.65;;;17.30;99.90;;;;;;5022875;28;20214;-60
2022/09/25 09:14:43;;;;;;;8.00;7.30;;;17.00;99.90;;;;;;5025055;28;20208;-62
2022/09/25 09:17:27;;;;;;;8.50;7.60;;;16.90;99.90;;;;;;5022878;28;20178;-61
2022/09/25 09:20:15;;;;;;;8.65;7.13;;;17.10;99.90;;;;;;5024052;28;20262;-61
2022/09/25 09:22:46;;;;;;;8.60;7.78;;;17.20;99.90;;;;;;5035070;28;20692;-60
2022/09/25 09:25:24;;;;;;;7.50;6.90;;;17.20;99.90;;;;;;5027669;28;20217;-62
2022/09/25 09:28:16;;;;;;;7.50;6.80;;;17.10;99.90;;;;;;5030784;28;20190;-61
2022/09/25 09:31:27;;;;;;;7.45;6.75;;;17.10;99.90;;;;;;5032188;28;20210;-61
2022/09/25 09:34:24;;;;;;;6.53;5.93;;;17.10;99.90;;;;;;4998582;28;20282;-60
2022/09/25 09:36:54;;;;;;;11.15;7.03;;;17.10;99.90;;;;;;5032443;28;20185;-60
2022/09/25 09:39:37;;;;;;;6.80;6.15;;;17.10;99.90;;;;;;5030241;28;20178;-67
2022/09/25 09:42:21;;;;;;;9.05;8.20;;;17.00;99.90;;;;;;5034278;28;20197;-66
2022/09/25 09:44:48;;;;;;;9.60;7.20;;;17.20;99.90;;;;;;5039594;28;20221;-66
2022/09/25 09:47:46;;;;;;;6.72;6.13;;;17.40;99.90;;;;;;5038414;28;20190;-69
2022/09/25 09:50:24;;;;;;;7.38;6.70;;;17.50;99.90;;;;;;4996398;28;20191;-69
2022/09/25 09:52:57;;;;;;;7.95;7.15;;;17.60;99.90;;;;;;5030424;28;20240;-60
2022/09/25 09:55:36;;;;;;;6.53;6.03;;;17.30;99.90;;;;;;5030294;28;20204;-63
2022/09/25 09:58:09;;;;;;;7.20;6.50;;;17.30;99.90;;;;;;5035208;28;20177;-63
2022/09/25 10:00:37;;;;;;;6.78;6.18;;;17.10;99.90;;;;;;5031608;28;20205;-73
2022/09/25 10:03:11;;;;;;;6.75;6.18;;;17.70;99.90;;;;;;5033418;28;20189;-67
2022/09/25 10:05:48;;;;;;;7.38;6.63;;;17.70;99.90;;;;;;5025516;28;21224;-66
2022/09/25 10:08:16;;;;;;;7.22;6.53;;;17.30;99.90;;;;;;5033686;28;20186;-65
2022/09/25 10:10:49;;;;;;;8.52;6.28;;;17.20;99.90;;;;;;5031640;28;20194;-65
2022/09/25 10:13:22;;;;;;;7.50;6.38;;;17.30;99.90;;;;;;5033383;28;20184;-62
2022/09/25 10:15:56;;;;;;;8.38;7.53;;;17.40;99.90;;;;;;5039920;28;20280;-60
2022/09/25 10:18:27;;;;;;;8.50;7.70;;;17.50;99.90;;;;;;5033245;28;20209;-61
2022/09/25 10:21:02;;;;;;;9.45;6.60;;;17.50;99.90;;;;;;5028503;28;20587;-62
2022/09/25 10:23:39;;;;;;;7.50;6.68;;;17.80;99.90;;;;;;5036320;28;20661;-62
2022/09/25 10:26:35;;;;;;;7.90;7.20;;;17.70;99.90;;;;;;5024859;28;20227;-62
2022/09/25 10:29:22;;;;;;;8.35;7.55;;;18.00;99.90;;;;;;5020535;28;20191;-61
2022/09/25 10:31:57;;;;;;;7.50;6.80;;;18.50;99.90;;;;;;5036748;28;20308;-61
2022/09/25 10:34:25;;;;;;;7.57;6.88;;;18.60;99.90;;;;;;5021204;28;20228;-63
2022/09/25 10:36:52;;;;;;;7.47;6.88;;;18.50;99.90;;;;;;5027045;28;20595;-62
2022/09/25 10:39:38;;;;;;;9.13;8.20;;;18.30;99.90;;;;;;5026098;28;20279;-62
2022/09/25 10:42:26;;;;;;;9.02;8.23;;;18.30;99.90;;;;;;5029091;28;20274;-63
2022/09/25 10:44:56;;;;;;;9.15;8.20;;;18.20;99.90;;;;;;5025537;28;20267;-60
2022/09/25 10:50:22;;;;;;;9.20;8.30;;;17.70;99.90;;;;;;5024899;28;20198;-62
2022/09/25 10:52:50;;;;;;;9.00;8.20;;;17.50;99.90;;;;;;5021508;28;20185;-60
2022/09/25 10:55:38;;;;;;;8.15;7.47;;;17.40;99.90;;;;;;5025998;28;20229;-62
2022/09/25 10:58:10;;;;;;;9.40;8.50;;;17.30;99.90;;;;;;5026789;28;20185;-60
2022/09/25 11:00:57;;;;;;;9.27;8.38;;;17.40;99.90;;;;;;5032755;28;20194;-63
2022/09/25 11:03:31;;;;;;;8.90;8.13;;;17.10;99.90;;;;;;5022387;28;20643;-60
2022/09/25 11:06:07;;;;;;;9.85;8.95;;;16.90;99.90;;;;;;5033737;28;20233;-61
2022/09/25 11:08:40;;;;;;;9.85;8.95;;;16.70;99.90;;;;;;5025125;28;20179;-60
2022/09/25 11:11:08;;;;;;;9.57;8.77;;;16.80;99.90;;;;;;5031903;28;20210;-61
2022/09/25 11:13:45;;;;;;;10.95;9.95;;;16.70;99.90;;;;;;5030977;28;20186;-60
2022/09/25 11:16:12;;;;;;;11.75;10.60;;;16.60;99.90;;;;;;5027633;28;20286;-59
2022/09/25 11:18:48;;;;;;;12.25;11.13;;;16.60;99.90;;;;;;5029652;28;20187;-59
2022/09/25 11:21:24;;;;;;;11.85;10.75;;;16.50;99.90;;;;;;5029571;28;20267;-62
2022/09/25 11:24:12;;;;;;;13.77;12.23;;;16.60;99.90;;;;;;5028516;28;20272;-62
2022/09/25 11:26:47;;;;;;;14.07;12.65;;;16.50;99.90;;;;;;5030956;28;20204;-62
2022/09/25 11:29:39;;;;;;;12.40;11.30;;;16.70;99.90;;;;;;5029642;28;20685;-60
2022/09/25 11:32:21;;;;;;;15.32;13.90;;;16.40;99.90;;;;;;5005552;28;20563;-62
2022/09/25 11:34:46;;;;;;;13.02;11.45;;;16.40;99.90;;;;;;5027410;28;20237;-60
2022/09/25 11:37:42;;;;;;;14.10;12.70;;;16.30;99.90;;;;;;5034078;28;20201;-62
2022/09/25 11:43:39;;;;;;;13.70;12.35;;;16.30;99.90;;;;;;5030380;28;20197;-64
2022/09/25 11:46:19;;;;;;;17.50;13.90;;;16.60;99.90;;;;;;5025998;28;20852;-68
2022/09/25 11:48:54;;;;;;;14.88;12.80;;;16.70;99.90;;;;;;5026947;28;20198;-61
2022/09/25 11:51:42;;;;;;;14.05;12.75;;;16.90;99.90;;;;;;5030694;28;20637;-63
2022/09/25 11:54:34;;;;;;;17.35;13.77;;;16.70;99.90;;;;;;5025156;28;20258;-60
2022/09/25 11:57:26;;;;;;;13.20;11.98;;;16.80;99.90;;;;;;5032826;28;20212;-62
2022/09/25 12:00:10;;;;;;;13.05;11.77;;;16.70;99.90;;;;;;5035663;28;20666;-62
2022/09/25 12:02:54;;;;;;;14.43;12.10;;;16.80;99.90;;;;;;5029663;28;20205;-63
2022/09/25 12:05:55;;;;;;;14.05;12.63;;;16.60;99.90;;;;;;5043629;28;20202;-63
2022/09/25 12:08:49;;;;;;;14.15;12.60;;;16.40;99.90;;;;;;5034571;28;20177;-60
2022/09/25 12:11:56;;;;;;;16.88;12.57;;;16.70;99.90;;;;;;5022018;28;20217;-61
2022/09/25 12:14:46;;;;;;;14.15;12.65;;;17.00;99.90;;;;;;5029483;28;20237;-68
2022/09/25 12:17:38;;;;;;;15.88;12.60;;;17.10;99.90;;;;;;5023264;28;20232;-67
2022/09/25 12:20:15;;;;;;;14.57;13.18;;;16.90;99.90;;;;;;5031637;28;20675;-69
2022/09/25 12:23:09;;;;;;;14.63;12.93;;;16.50;99.90;;;;;;5033104;28;20197;-67
2022/09/25 12:25:50;;;;;;;15.27;13.48;;;16.90;99.90;;;;;;5026747;28;20213;-68
2022/09/25 12:28:24;;;;;;;15.20;13.70;;;17.00;99.90;;;;;;5019524;28;20244;-68
2022/09/25 12:31:10;;;;;;;14.50;13.00;;;17.00;99.90;;;;;;5027861;28;20380;-66
2022/09/25 12:33:45;;;;;;;15.18;13.68;;;17.20;99.90;;;;;;5027186;28;20663;-69
2022/09/25 12:36:35;;;;;;;15.35;13.85;;;17.30;99.90;;;;;;5023272;28;20210;-70
2022/09/25 12:39:30;;;;;;;15.75;13.48;;;17.60;99.90;;;;;;5026987;28;20170;-71
2022/09/25 12:42:24;;;;;;;14.82;13.40;;;17.70;99.90;;;;;;5024973;28;20615;-70
2022/09/25 12:45:23;;;;;;;13.65;12.35;;;18.00;99.90;;;;;;5029049;28;20228;-69
2022/09/25 12:48:37;;;;;;;13.20;11.95;;;18.20;99.90;;;;;;5022329;28;20206;-69
2022/09/25 12:51:26;;;;;;;14.98;12.23;;;18.30;99.90;;;;;;4987159;28;20319;-67
2022/09/25 12:53:59;;;;;;;15.52;13.60;;;18.10;99.90;;;;;;5023169;28;20281;-68
2022/09/25 12:56:48;;;;;;;13.52;12.23;;;18.10;99.90;;;;;;5030716;28;20179;-67
2022/09/25 12:59:29;;;;;;;13.00;11.70;;;17.90;99.90;;;;;;5030611;28;20178;-68
2022/09/25 13:02:10;;;;;;;13.75;11.45;;;18.00;99.90;;;;;;5028837;28;20189;-69
2022/09/25 13:04:47;;;;;;;12.65;11.35;;;18.00;99.90;;;;;;5033202;28;20209;-67
2022/09/25 13:07:38;;;;;;;12.98;11.68;;;17.90;99.90;;;;;;5029830;28;20190;-68
2022/09/25 13:10:23;;;;;;;12.32;11.13;;;17.90;99.90;;;;;;5025141;28;20328;-68
2022/09/25 13:12:50;;;;;;;13.82;12.27;;;18.10;99.90;;;;;;5032262;28;20470;-69
2022/09/25 13:15:27;;;;;;;13.30;11.93;;;18.00;99.90;;;;;;5031996;28;20293;-68
2022/09/25 13:17:54;;;;;;;12.70;11.50;;;17.90;99.90;;;;;;5031412;28;20194;-68
2022/09/25 13:20:26;;;;;;;14.38;12.45;;;17.90;99.90;;;;;;5027451;28;20245;-68
2022/09/25 13:22:55;;;;;;;12.98;11.65;;;18.00;99.90;;;;;;5036455;28;20191;-73